sensor_id;sensor_type;location;lat;lon;timestamp;P1;durP1;ratioP1;P2;durP2;ratioP2
25639;SDS011;13497;48.322;16.204;2023-07-13T00:00:40;0.70;;;0.50;;
25639;SDS011;13497;48.322;16.204;2023-07-13T00:03:06;0.40;;;0.40;;
25639;SDS011;13497;48.322;16.204;2023-07-13T00:05:32;0.50;;;0.50;;
25639;SDS011;13497;48.322;16.204;2023-07-13T00:07:58;1.63;;;0.52;;
25639;SDS011;13497;48.322;16.204;2023-07-13T00:10:24;0.45;;;0.40;;
25639;SDS011;13497;48.322;16.204;2023-07-13T00:12:50;0.47;;;0.47;;
25639;SDS011;13497;48.322;16.204;2023-07-13T00:15:21;0.40;;;0.40;;
25639;SDS011;13497;48.322;16.204;2023-07-13T00:17:49;1.10;;;0.70;;
25639;SDS011;13497;48.322;16.204;2023-07-13T00:20:15;0.57;;;0.50;;
25639;SDS011;13497;48.322;16.204;2023-07-13T00:22:42;1.13;;;0.60;;
25639;SDS011;13497;48.322;16.204;2023-07-13T00:25:09;0.50;;;0.50;;
25639;SDS011;13497;48.322;16.204;2023-07-13T00:27:36;1.38;;;0.43;;
25639;SDS011;13497;48.322;16.204;2023-07-13T00:30:02;0.98;;;0.50;;
25639;SDS011;13497;48.322;16.204;2023-07-13T00:32:28;0.38;;;0.38;;
25639;SDS011;13497;48.322;16.204;2023-07-13T00:34:54;0.60;;;0.52;;
25639;SDS011;13497;48.322;16.204;2023-07-13T00:37:21;0.40;;;0.40;;
25639;SDS011;13497;48.322;16.204;2023-07-13T00:39:47;0.98;;;0.55;;
25639;SDS011;13497;48.322;16.204;2023-07-13T00:42:13;0.30;;;0.30;;
25639;SDS011;13497;48.322;16.204;2023-07-13T00:44:40;0.60;;;0.60;;
25639;SDS011;13497;48.322;16.204;2023-07-13T00:47:06;0.73;;;0.50;;
25639;SDS011;13497;48.322;16.204;2023-07-13T00:49:32;0.40;;;0.40;;
25639;SDS011;13497;48.322;16.204;2023-07-13T00:52:07;0.57;;;0.50;;
25639;SDS011;13497;48.322;16.204;2023-07-13T00:54:40;0.43;;;0.43;;
25639;SDS011;13497;48.322;16.204;2023-07-13T00:57:11;0.32;;;0.32;;
25639;SDS011;13497;48.322;16.204;2023-07-13T00:59:41;1.05;;;0.68;;
25639;SDS011;13497;48.322;16.204;2023-07-13T01:02:08;2.40;;;0.50;;
25639;SDS011;13497;48.322;16.204;2023-07-13T01:04:35;0.50;;;0.40;;
25639;SDS011;13497;48.322;16.204;2023-07-13T01:07:01;0.63;;;0.40;;
25639;SDS011;13497;48.322;16.204;2023-07-13T01:09:27;0.35;;;0.28;;
25639;SDS011;13497;48.322;16.204;2023-07-13T01:11:53;0.40;;;0.30;;
25639;SDS011;13497;48.322;16.204;2023-07-13T01:14:18;0.20;;;0.20;;
25639;SDS011;13497;48.322;16.204;2023-07-13T01:16:45;0.93;;;0.30;;
25639;SDS011;13497;48.322;16.204;2023-07-13T01:19:21;0.38;;;0.38;;
25639;SDS011;13497;48.322;16.204;2023-07-13T01:21:51;0.40;;;0.40;;
25639;SDS011;13497;48.322;16.204;2023-07-13T01:24:17;0.68;;;0.30;;
25639;SDS011;13497;48.322;16.204;2023-07-13T01:26:43;0.30;;;0.30;;
25639;SDS011;13497;48.322;16.204;2023-07-13T01:29:09;0.47;;;0.47;;
25639;SDS011;13497;48.322;16.204;2023-07-13T01:31:34;0.47;;;0.30;;
25639;SDS011;13497;48.322;16.204;2023-07-13T01:34:00;0.40;;;0.40;;
25639;SDS011;13497;48.322;16.204;2023-07-13T01:36:26;0.43;;;0.43;;
25639;SDS011;13497;48.322;16.204;2023-07-13T01:38:52;0.30;;;0.30;;
25639;SDS011;13497;48.322;16.204;2023-07-13T01:41:17;0.33;;;0.33;;
25639;SDS011;13497;48.322;16.204;2023-07-13T01:43:43;1.67;;;0.60;;
25639;SDS011;13497;48.322;16.204;2023-07-13T01:46:08;0.40;;;0.40;;
25639;SDS011;13497;48.322;16.204;2023-07-13T01:48:34;0.85;;;0.40;;
25639;SDS011;13497;48.322;16.204;2023-07-13T01:51:00;2.17;;;0.40;;
25639;SDS011;13497;48.322;16.204;2023-07-13T01:53:25;0.40;;;0.40;;
25639;SDS011;13497;48.322;16.204;2023-07-13T01:55:51;1.05;;;0.50;;
25639;SDS011;13497;48.322;16.204;2023-07-13T01:58:17;0.50;;;0.30;;
25639;SDS011;13497;48.322;16.204;2023-07-13T02:00:42;0.22;;;0.22;;
25639;SDS011;13497;48.322;16.204;2023-07-13T02:03:08;0.50;;;0.40;;
25639;SDS011;13497;48.322;16.204;2023-07-13T02:05:34;0.35;;;0.30;;
25639;SDS011;13497;48.322;16.204;2023-07-13T02:08:00;0.30;;;0.30;;
25639;SDS011;13497;48.322;16.204;2023-07-13T02:10:25;0.47;;;0.47;;
25639;SDS011;13497;48.322;16.204;2023-07-13T02:12:51;0.30;;;0.30;;
25639;SDS011;13497;48.322;16.204;2023-07-13T02:15:17;0.35;;;0.35;;
25639;SDS011;13497;48.322;16.204;2023-07-13T02:17:43;0.20;;;0.20;;
25639;SDS011;13497;48.322;16.204;2023-07-13T02:20:09;0.30;;;0.30;;
25639;SDS011;13497;48.322;16.204;2023-07-13T02:22:35;0.30;;;0.30;;
25639;SDS011;13497;48.322;16.204;2023-07-13T02:25:00;0.40;;;0.40;;
25639;SDS011;13497;48.322;16.204;2023-07-13T02:27:26;0.88;;;0.38;;
25639;SDS011;13497;48.322;16.204;2023-07-13T02:29:52;0.63;;;0.50;;
25639;SDS011;13497;48.322;16.204;2023-07-13T02:32:18;0.35;;;0.30;;
25639;SDS011;13497;48.322;16.204;2023-07-13T02:34:44;1.08;;;0.55;;
25639;SDS011;13497;48.322;16.204;2023-07-13T02:37:09;0.50;;;0.30;;
25639;SDS011;13497;48.322;16.204;2023-07-13T02:39:35;0.35;;;0.35;;
25639;SDS011;13497;48.322;16.204;2023-07-13T02:42:01;0.40;;;0.40;;
25639;SDS011;13497;48.322;16.204;2023-07-13T02:44:28;0.47;;;0.40;;
25639;SDS011;13497;48.322;16.204;2023-07-13T02:46:54;0.30;;;0.30;;
25639;SDS011;13497;48.322;16.204;2023-07-13T02:49:19;0.68;;;0.55;;
25639;SDS011;13497;48.322;16.204;2023-07-13T02:51:45;0.88;;;0.82;;
25639;SDS011;13497;48.322;16.204;2023-07-13T02:54:11;0.40;;;0.40;;
25639;SDS011;13497;48.322;16.204;2023-07-13T02:56:38;0.40;;;0.40;;
25639;SDS011;13497;48.322;16.204;2023-07-13T02:59:04;0.40;;;0.40;;
25639;SDS011;13497;48.322;16.204;2023-07-13T03:01:30;0.85;;;0.47;;
25639;SDS011;13497;48.322;16.204;2023-07-13T03:03:59;0.32;;;0.30;;
25639;SDS011;13497;48.322;16.204;2023-07-13T03:06:25;0.30;;;0.30;;
25639;SDS011;13497;48.322;16.204;2023-07-13T03:08:55;0.38;;;0.38;;
25639;SDS011;13497;48.322;16.204;2023-07-13T03:11:21;0.63;;;0.40;;
25639;SDS011;13497;48.322;16.204;2023-07-13T03:13:47;0.82;;;0.63;;
25639;SDS011;13497;48.322;16.204;2023-07-13T03:16:13;0.38;;;0.38;;
25639;SDS011;13497;48.322;16.204;2023-07-13T03:18:43;0.43;;;0.43;;
25639;SDS011;13497;48.322;16.204;2023-07-13T03:21:09;0.40;;;0.40;;
25639;SDS011;13497;48.322;16.204;2023-07-13T03:23:35;0.40;;;0.40;;
25639;SDS011;13497;48.322;16.204;2023-07-13T03:26:11;0.55;;;0.43;;
25639;SDS011;13497;48.322;16.204;2023-07-13T03:28:40;0.40;;;0.40;;
25639;SDS011;13497;48.322;16.204;2023-07-13T03:33:33;0.95;;;0.43;;
25639;SDS011;13497;48.322;16.204;2023-07-13T03:35:59;0.70;;;0.35;;
25639;SDS011;13497;48.322;16.204;2023-07-13T03:38:25;0.40;;;0.40;;
25639;SDS011;13497;48.322;16.204;2023-07-13T03:40:51;0.43;;;0.43;;
25639;SDS011;13497;48.322;16.204;2023-07-13T03:45:43;0.80;;;0.43;;
25639;SDS011;13497;48.322;16.204;2023-07-13T03:48:09;1.75;;;0.70;;
25639;SDS011;13497;48.322;16.204;2023-07-13T03:50:34;1.83;;;0.75;;
25639;SDS011;13497;48.322;16.204;2023-07-13T03:53:00;0.87;;;0.57;;
25639;SDS011;13497;48.322;16.204;2023-07-13T03:55:26;0.85;;;0.40;;
25639;SDS011;13497;48.322;16.204;2023-07-13T03:57:53;0.53;;;0.47;;
25639;SDS011;13497;48.322;16.204;2023-07-13T04:00:24;0.45;;;0.40;;
25639;SDS011;13497;48.322;16.204;2023-07-13T04:02:50;0.60;;;0.52;;
25639;SDS011;13497;48.322;16.204;2023-07-13T04:05:16;0.73;;;0.65;;
25639;SDS011;13497;48.322;16.204;2023-07-13T04:07:42;0.35;;;0.30;;
25639;SDS011;13497;48.322;16.204;2023-07-13T04:10:08;0.43;;;0.40;;
25639;SDS011;13497;48.322;16.204;2023-07-13T04:12:34;0.50;;;0.50;;
25639;SDS011;13497;48.322;16.204;2023-07-13T04:14:59;2.25;;;0.90;;
25639;SDS011;13497;48.322;16.204;2023-07-13T04:17:25;1.02;;;0.50;;
25639;SDS011;13497;48.322;16.204;2023-07-13T04:19:51;0.60;;;0.57;;
25639;SDS011;13497;48.322;16.204;2023-07-13T04:22:16;1.30;;;0.40;;
25639;SDS011;13497;48.322;16.204;2023-07-13T04:24:42;0.83;;;0.70;;
25639;SDS011;13497;48.322;16.204;2023-07-13T04:27:08;0.52;;;0.47;;
25639;SDS011;13497;48.322;16.204;2023-07-13T04:29:34;0.50;;;0.50;;
25639;SDS011;13497;48.322;16.204;2023-07-13T04:32:00;1.05;;;0.82;;
25639;SDS011;13497;48.322;16.204;2023-07-13T04:34:26;0.52;;;0.52;;
25639;SDS011;13497;48.322;16.204;2023-07-13T04:36:51;0.45;;;0.45;;
25639;SDS011;13497;48.322;16.204;2023-07-13T04:39:17;0.70;;;0.70;;
25639;SDS011;13497;48.322;16.204;2023-07-13T04:41:43;0.50;;;0.50;;
25639;SDS011;13497;48.322;16.204;2023-07-13T04:44:08;3.72;;;1.40;;
25639;SDS011;13497;48.322;16.204;2023-07-13T04:46:34;0.50;;;0.40;;
25639;SDS011;13497;48.322;16.204;2023-07-13T04:48:59;1.10;;;0.60;;
25639;SDS011;13497;48.322;16.204;2023-07-13T04:51:25;0.68;;;0.50;;
25639;SDS011;13497;48.322;16.204;2023-07-13T04:53:51;1.10;;;0.63;;
25639;SDS011;13497;48.322;16.204;2023-07-13T04:56:17;0.60;;;0.60;;
25639;SDS011;13497;48.322;16.204;2023-07-13T04:58:44;0.50;;;0.45;;
25639;SDS011;13497;48.322;16.204;2023-07-13T05:01:10;0.50;;;0.50;;
25639;SDS011;13497;48.322;16.204;2023-07-13T05:03:35;13.70;;;1.17;;
25639;SDS011;13497;48.322;16.204;2023-07-13T05:06:03;0.90;;;0.38;;
25639;SDS011;13497;48.322;16.204;2023-07-13T05:08:31;0.77;;;0.60;;
25639;SDS011;13497;48.322;16.204;2023-07-13T05:10:59;0.40;;;0.40;;
25639;SDS011;13497;48.322;16.204;2023-07-13T05:13:25;0.90;;;0.60;;
25639;SDS011;13497;48.322;16.204;2023-07-13T05:15:58;1.20;;;0.73;;
25639;SDS011;13497;48.322;16.204;2023-07-13T05:18:26;1.40;;;0.73;;
25639;SDS011;13497;48.322;16.204;2023-07-13T05:20:59;0.85;;;0.40;;
25639;SDS011;13497;48.322;16.204;2023-07-13T05:23:29;1.52;;;0.50;;
25639;SDS011;13497;48.322;16.204;2023-07-13T05:28:21;1.95;;;0.47;;
25639;SDS011;13497;48.322;16.204;2023-07-13T05:30:47;0.82;;;0.43;;
25639;SDS011;13497;48.322;16.204;2023-07-13T05:33:14;0.30;;;0.30;;
25639;SDS011;13497;48.322;16.204;2023-07-13T05:35:39;0.50;;;0.50;;
25639;SDS011;13497;48.322;16.204;2023-07-13T05:38:06;0.90;;;0.38;;
25639;SDS011;13497;48.322;16.204;2023-07-13T05:40:31;1.30;;;0.50;;
25639;SDS011;13497;48.322;16.204;2023-07-13T05:42:57;0.57;;;0.57;;
25639;SDS011;13497;48.322;16.204;2023-07-13T05:45:23;0.60;;;0.60;;
25639;SDS011;13497;48.322;16.204;2023-07-13T05:47:48;0.60;;;0.60;;
25639;SDS011;13497;48.322;16.204;2023-07-13T05:50:14;1.00;;;0.68;;
25639;SDS011;13497;48.322;16.204;2023-07-13T05:52:40;4.07;;;0.93;;
25639;SDS011;13497;48.322;16.204;2023-07-13T05:55:06;1.20;;;0.80;;
25639;SDS011;13497;48.322;16.204;2023-07-13T05:57:32;0.60;;;0.50;;
25639;SDS011;13497;48.322;16.204;2023-07-13T05:59:57;0.55;;;0.50;;
25639;SDS011;13497;48.322;16.204;2023-07-13T06:02:23;1.55;;;1.00;;
25639;SDS011;13497;48.322;16.204;2023-07-13T06:04:49;0.38;;;0.38;;
25639;SDS011;13497;48.322;16.204;2023-07-13T06:07:14;0.40;;;0.40;;
25639;SDS011;13497;48.322;16.204;2023-07-13T06:09:40;0.40;;;0.40;;
25639;SDS011;13497;48.322;16.204;2023-07-13T06:12:06;0.40;;;0.40;;
25639;SDS011;13497;48.322;16.204;2023-07-13T06:14:32;2.15;;;0.57;;
25639;SDS011;13497;48.322;16.204;2023-07-13T06:16:58;0.60;;;0.43;;
25639;SDS011;13497;48.322;16.204;2023-07-13T06:19:23;1.95;;;0.50;;
25639;SDS011;13497;48.322;16.204;2023-07-13T06:21:49;1.58;;;0.50;;
25639;SDS011;13497;48.322;16.204;2023-07-13T06:24:15;0.68;;;0.40;;
25639;SDS011;13497;48.322;16.204;2023-07-13T06:26:40;0.40;;;0.40;;
25639;SDS011;13497;48.322;16.204;2023-07-13T06:29:06;1.67;;;1.27;;
25639;SDS011;13497;48.322;16.204;2023-07-13T06:31:32;0.82;;;0.50;;
25639;SDS011;13497;48.322;16.204;2023-07-13T06:33:57;0.40;;;0.40;;
25639;SDS011;13497;48.322;16.204;2023-07-13T06:36:23;0.50;;;0.45;;
25639;SDS011;13497;48.322;16.204;2023-07-13T06:38:49;0.45;;;0.45;;
25639;SDS011;13497;48.322;16.204;2023-07-13T06:41:14;0.43;;;0.30;;
25639;SDS011;13497;48.322;16.204;2023-07-13T06:43:40;0.40;;;0.40;;
25639;SDS011;13497;48.322;16.204;2023-07-13T06:46:06;0.40;;;0.40;;
25639;SDS011;13497;48.322;16.204;2023-07-13T06:48:32;0.55;;;0.55;;
25639;SDS011;13497;48.322;16.204;2023-07-13T06:50:57;0.20;;;0.20;;
25639;SDS011;13497;48.322;16.204;2023-07-13T06:53:23;0.45;;;0.40;;
25639;SDS011;13497;48.322;16.204;2023-07-13T06:55:49;0.30;;;0.30;;
25639;SDS011;13497;48.322;16.204;2023-07-13T06:58:15;1.13;;;0.50;;
25639;SDS011;13497;48.322;16.204;2023-07-13T07:00:42;0.50;;;0.43;;
25639;SDS011;13497;48.322;16.204;2023-07-13T07:03:08;3.25;;;0.77;;
25639;SDS011;13497;48.322;16.204;2023-07-13T07:05:34;0.45;;;0.40;;
25639;SDS011;13497;48.322;16.204;2023-07-13T07:08:00;0.95;;;0.55;;
25639;SDS011;13497;48.322;16.204;2023-07-13T07:10:26;0.40;;;0.35;;
25639;SDS011;13497;48.322;16.204;2023-07-13T07:12:54;3.50;;;0.32;;
25639;SDS011;13497;48.322;16.204;2023-07-13T07:15:20;0.20;;;0.20;;
25639;SDS011;13497;48.322;16.204;2023-07-13T07:17:45;0.20;;;0.20;;
25639;SDS011;13497;48.322;16.204;2023-07-13T07:20:11;0.30;;;0.30;;
25639;SDS011;13497;48.322;16.204;2023-07-13T07:22:37;0.30;;;0.30;;
25639;SDS011;13497;48.322;16.204;2023-07-13T07:25:03;0.47;;;0.47;;
25639;SDS011;13497;48.322;16.204;2023-07-13T07:27:29;0.65;;;0.40;;
25639;SDS011;13497;48.322;16.204;2023-07-13T07:29:55;0.32;;;0.32;;
25639;SDS011;13497;48.322;16.204;2023-07-13T07:32:22;1.75;;;1.23;;
25639;SDS011;13497;48.322;16.204;2023-07-13T07:34:48;1.27;;;0.65;;
25639;SDS011;13497;48.322;16.204;2023-07-13T07:37:13;0.40;;;0.40;;
25639;SDS011;13497;48.322;16.204;2023-07-13T07:39:40;0.47;;;0.32;;
25639;SDS011;13497;48.322;16.204;2023-07-13T07:42:05;0.60;;;0.35;;
25639;SDS011;13497;48.322;16.204;2023-07-13T07:46:57;0.40;;;0.40;;
25639;SDS011;13497;48.322;16.204;2023-07-13T07:49:23;0.25;;;0.25;;
25639;SDS011;13497;48.322;16.204;2023-07-13T07:51:49;0.70;;;0.40;;
25639;SDS011;13497;48.322;16.204;2023-07-13T07:54:15;0.82;;;0.45;;
25639;SDS011;13497;48.322;16.204;2023-07-13T07:56:41;0.93;;;0.40;;
25639;SDS011;13497;48.322;16.204;2023-07-13T07:59:07;0.20;;;0.20;;
25639;SDS011;13497;48.322;16.204;2023-07-13T08:01:33;0.20;;;0.20;;
25639;SDS011;13497;48.322;16.204;2023-07-13T08:03:59;0.20;;;0.20;;
25639;SDS011;13497;48.322;16.204;2023-07-13T08:06:25;0.45;;;0.45;;
25639;SDS011;13497;48.322;16.204;2023-07-13T08:08:50;3.45;;;0.35;;
25639;SDS011;13497;48.322;16.204;2023-07-13T08:11:16;0.57;;;0.55;;
25639;SDS011;13497;48.322;16.204;2023-07-13T08:13:42;0.60;;;0.60;;
25639;SDS011;13497;48.322;16.204;2023-07-13T08:16:08;1.25;;;0.43;;
25639;SDS011;13497;48.322;16.204;2023-07-13T08:18:33;0.28;;;0.28;;
25639;SDS011;13497;48.322;16.204;2023-07-13T08:21:06;0.40;;;0.40;;
25639;SDS011;13497;48.322;16.204;2023-07-13T08:23:32;0.70;;;0.40;;
25639;SDS011;13497;48.322;16.204;2023-07-13T08:25:59;6.00;;;1.17;;
25639;SDS011;13497;48.322;16.204;2023-07-13T08:28:26;0.40;;;0.40;;
25639;SDS011;13497;48.322;16.204;2023-07-13T08:30:52;0.40;;;0.40;;
25639;SDS011;13497;48.322;16.204;2023-07-13T08:33:19;0.40;;;0.40;;
25639;SDS011;13497;48.322;16.204;2023-07-13T08:35:46;0.35;;;0.30;;
25639;SDS011;13497;48.322;16.204;2023-07-13T08:38:12;0.30;;;0.30;;
25639;SDS011;13497;48.322;16.204;2023-07-13T08:40:38;0.50;;;0.50;;
25639;SDS011;13497;48.322;16.204;2023-07-13T08:43:06;0.50;;;0.50;;
25639;SDS011;13497;48.322;16.204;2023-07-13T08:45:57;0.55;;;0.52;;
25639;SDS011;13497;48.322;16.204;2023-07-13T08:48:35;1.02;;;0.65;;
25639;SDS011;13497;48.322;16.204;2023-07-13T08:53:39;0.65;;;0.65;;
25639;SDS011;13497;48.322;16.204;2023-07-13T08:56:13;0.98;;;0.63;;
25639;SDS011;13497;48.322;16.204;2023-07-13T08:58:44;2.90;;;0.70;;
25639;SDS011;13497;48.322;16.204;2023-07-13T09:03:46;5.35;;;0.60;;
25639;SDS011;13497;48.322;16.204;2023-07-13T09:06:20;0.43;;;0.43;;
25639;SDS011;13497;48.322;16.204;2023-07-13T09:08:56;5.15;;;0.85;;
25639;SDS011;13497;48.322;16.204;2023-07-13T09:11:36;0.50;;;0.50;;
25639;SDS011;13497;48.322;16.204;2023-07-13T09:17:27;0.80;;;0.80;;
25639;SDS011;13497;48.322;16.204;2023-07-13T09:19:58;0.70;;;0.70;;
25639;SDS011;13497;48.322;16.204;2023-07-13T09:22:29;1.17;;;1.08;;
25639;SDS011;13497;48.322;16.204;2023-07-13T09:25:05;1.25;;;1.10;;
25639;SDS011;13497;48.322;16.204;2023-07-13T09:27:45;1.08;;;0.93;;
25639;SDS011;13497;48.322;16.204;2023-07-13T09:30:17;1.30;;;1.20;;
25639;SDS011;13497;48.322;16.204;2023-07-13T09:32:51;0.80;;;0.80;;
25639;SDS011;13497;48.322;16.204;2023-07-13T09:35:22;1.08;;;0.98;;
25639;SDS011;13497;48.322;16.204;2023-07-13T09:37:55;1.00;;;0.90;;
25639;SDS011;13497;48.322;16.204;2023-07-13T09:43:20;1.38;;;1.00;;
25639;SDS011;13497;48.322;16.204;2023-07-13T09:45:46;2.75;;;1.05;;
25639;SDS011;13497;48.322;16.204;2023-07-13T09:48:13;1.00;;;0.95;;
25639;SDS011;13497;48.322;16.204;2023-07-13T09:50:40;1.00;;;1.00;;
25639;SDS011;13497;48.322;16.204;2023-07-13T09:53:16;2.25;;;1.20;;
25639;SDS011;13497;48.322;16.204;2023-07-13T09:55:47;1.00;;;0.77;;
25639;SDS011;13497;48.322;16.204;2023-07-13T09:58:16;1.98;;;1.10;;
25639;SDS011;13497;48.322;16.204;2023-07-13T10:01:21;1.10;;;1.00;;
25639;SDS011;13497;48.322;16.204;2023-07-13T10:03:41;1.25;;;1.00;;
25639;SDS011;13497;48.322;16.204;2023-07-13T10:06:19;1.20;;;1.08;;
25639;SDS011;13497;48.322;16.204;2023-07-13T10:08:47;0.93;;;0.93;;
25639;SDS011;13497;48.322;16.204;2023-07-13T10:11:23;1.17;;;1.08;;
25639;SDS011;13497;48.322;16.204;2023-07-13T10:13:56;1.75;;;1.08;;
25639;SDS011;13497;48.322;16.204;2023-07-13T10:16:25;0.70;;;0.70;;
25639;SDS011;13497;48.322;16.204;2023-07-13T10:18:58;1.50;;;1.27;;
25639;SDS011;13497;48.322;16.204;2023-07-13T10:21:27;0.93;;;0.93;;
25639;SDS011;13497;48.322;16.204;2023-07-13T10:23:59;0.95;;;0.90;;
25639;SDS011;13497;48.322;16.204;2023-07-13T10:26:46;0.90;;;0.90;;
25639;SDS011;13497;48.322;16.204;2023-07-13T10:29:18;1.27;;;1.13;;
25639;SDS011;13497;48.322;16.204;2023-07-13T10:31:47;1.10;;;1.00;;
25639;SDS011;13497;48.322;16.204;2023-07-13T10:34:13;1.25;;;0.85;;
25639;SDS011;13497;48.322;16.204;2023-07-13T10:36:43;1.08;;;0.98;;
25639;SDS011;13497;48.322;16.204;2023-07-13T10:41:59;1.48;;;1.00;;
25639;SDS011;13497;48.322;16.204;2023-07-13T10:44:29;1.05;;;1.00;;
25639;SDS011;13497;48.322;16.204;2023-07-13T10:47:00;1.27;;;1.17;;
25639;SDS011;13497;48.322;16.204;2023-07-13T10:49:29;1.13;;;0.77;;
25639;SDS011;13497;48.322;16.204;2023-07-13T10:51:57;1.60;;;1.00;;
25639;SDS011;13497;48.322;16.204;2023-07-13T10:54:32;1.42;;;1.20;;
25639;SDS011;13497;48.322;16.204;2023-07-13T10:57:18;3.10;;;1.30;;
25639;SDS011;13497;48.322;16.204;2023-07-13T10:59:47;1.90;;;0.97;;
25639;SDS011;13497;48.322;16.204;2023-07-13T11:02:29;1.25;;;0.88;;
25639;SDS011;13497;48.322;16.204;2023-07-13T11:04:56;1.10;;;0.70;;
25639;SDS011;13497;48.322;16.204;2023-07-13T11:07:29;1.10;;;1.00;;
25639;SDS011;13497;48.322;16.204;2023-07-13T11:10:02;1.10;;;1.00;;
25639;SDS011;13497;48.322;16.204;2023-07-13T11:15:26;1.67;;;1.33;;
25639;SDS011;13497;48.322;16.204;2023-07-13T11:17:54;3.08;;;2.00;;
25639;SDS011;13497;48.322;16.204;2023-07-13T11:20:38;1.20;;;1.10;;
25639;SDS011;13497;48.322;16.204;2023-07-13T11:25:42;0.60;;;0.60;;
25639;SDS011;13497;48.322;16.204;2023-07-13T11:38:19;0.82;;;0.82;;
25639;SDS011;13497;48.322;16.204;2023-07-13T11:41:21;2.42;;;1.00;;
25639;SDS011;13497;48.322;16.204;2023-07-13T11:43:55;1.27;;;1.10;;
25639;SDS011;13497;48.322;16.204;2023-07-13T11:46:32;1.20;;;1.10;;
25639;SDS011;13497;48.322;16.204;2023-07-13T11:48:58;1.20;;;0.98;;
25639;SDS011;13497;48.322;16.204;2023-07-13T11:54:10;2.00;;;0.90;;
25639;SDS011;13497;48.322;16.204;2023-07-13T11:56:58;0.75;;;0.75;;
25639;SDS011;13497;48.322;16.204;2023-07-13T11:59:27;0.75;;;0.75;;
25639;SDS011;13497;48.322;16.204;2023-07-13T12:01:55;0.90;;;0.90;;
25639;SDS011;13497;48.322;16.204;2023-07-13T12:04:25;1.00;;;1.00;;
25639;SDS011;13497;48.322;16.204;2023-07-13T12:07:07;1.10;;;0.82;;
25639;SDS011;13497;48.322;16.204;2023-07-13T12:09:39;0.80;;;0.80;;
25639;SDS011;13497;48.322;16.204;2023-07-13T12:12:28;2.22;;;0.73;;
25639;SDS011;13497;48.322;16.204;2023-07-13T12:14:54;1.58;;;0.63;;
25639;SDS011;13497;48.322;16.204;2023-07-13T12:17:21;2.10;;;0.60;;
25639;SDS011;13497;48.322;16.204;2023-07-13T12:19:49;0.80;;;0.77;;
25639;SDS011;13497;48.322;16.204;2023-07-13T12:22:17;0.60;;;0.60;;
25639;SDS011;13497;48.322;16.204;2023-07-13T12:24:45;0.82;;;0.70;;
25639;SDS011;13497;48.322;16.204;2023-07-13T12:30:21;0.57;;;0.47;;
25639;SDS011;13497;48.322;16.204;2023-07-13T12:33:06;0.70;;;0.70;;
25639;SDS011;13497;48.322;16.204;2023-07-13T12:35:40;0.90;;;0.80;;
25639;SDS011;13497;48.322;16.204;2023-07-13T12:38:10;0.40;;;0.40;;
25639;SDS011;13497;48.322;16.204;2023-07-13T12:40:36;0.90;;;0.90;;
25639;SDS011;13497;48.322;16.204;2023-07-13T12:43:03;0.73;;;0.73;;
25639;SDS011;13497;48.322;16.204;2023-07-13T12:45:31;0.82;;;0.82;;
25639;SDS011;13497;48.322;16.204;2023-07-13T12:50:29;0.77;;;0.77;;
25639;SDS011;13497;48.322;16.204;2023-07-13T12:53:01;2.10;;;1.00;;
25639;SDS011;13497;48.322;16.204;2023-07-13T12:55:29;0.80;;;0.80;;
25639;SDS011;13497;48.322;16.204;2023-07-13T12:57:58;0.77;;;0.77;;
25639;SDS011;13497;48.322;16.204;2023-07-13T13:00:29;2.65;;;1.10;;
25639;SDS011;13497;48.322;16.204;2023-07-13T13:03:02;2.05;;;1.05;;
25639;SDS011;13497;48.322;16.204;2023-07-13T13:05:32;0.98;;;0.82;;
25639;SDS011;13497;48.322;16.204;2023-07-13T13:07:58;1.20;;;1.10;;
25639;SDS011;13497;48.322;16.204;2023-07-13T13:10:25;0.68;;;0.68;;
25639;SDS011;13497;48.322;16.204;2023-07-13T13:12:51;0.93;;;0.82;;
25639;SDS011;13497;48.322;16.204;2023-07-13T13:15:17;1.10;;;1.00;;
25639;SDS011;13497;48.322;16.204;2023-07-13T13:17:44;1.13;;;0.95;;
25639;SDS011;13497;48.322;16.204;2023-07-13T13:22:43;0.80;;;0.80;;
25639;SDS011;13497;48.322;16.204;2023-07-13T13:27:41;1.35;;;0.88;;
25639;SDS011;13497;48.322;16.204;2023-07-13T13:30:13;1.35;;;1.20;;
25639;SDS011;13497;48.322;16.204;2023-07-13T13:32:40;1.20;;;1.10;;
25639;SDS011;13497;48.322;16.204;2023-07-13T13:35:12;9.07;;;0.73;;
25639;SDS011;13497;48.322;16.204;2023-07-13T13:37:44;1.35;;;1.02;;
25639;SDS011;13497;48.322;16.204;2023-07-13T13:40:19;1.08;;;0.98;;
25639;SDS011;13497;48.322;16.204;2023-07-13T13:42:48;0.90;;;0.90;;
25639;SDS011;13497;48.322;16.204;2023-07-13T13:45:14;1.10;;;0.75;;
25639;SDS011;13497;48.322;16.204;2023-07-13T13:47:42;1.02;;;0.80;;
25639;SDS011;13497;48.322;16.204;2023-07-13T13:50:21;0.75;;;0.75;;
25639;SDS011;13497;48.322;16.204;2023-07-13T13:52:50;4.28;;;0.90;;
25639;SDS011;13497;48.322;16.204;2023-07-13T13:55:20;0.88;;;0.70;;
25639;SDS011;13497;48.322;16.204;2023-07-13T13:57:46;0.73;;;0.73;;
25639;SDS011;13497;48.322;16.204;2023-07-13T14:00:13;0.90;;;0.88;;
25639;SDS011;13497;48.322;16.204;2023-07-13T14:02:42;1.92;;;1.23;;
25639;SDS011;13497;48.322;16.204;2023-07-13T14:05:17;0.82;;;0.70;;
25639;SDS011;13497;48.322;16.204;2023-07-13T14:07:47;1.25;;;1.15;;
25639;SDS011;13497;48.322;16.204;2023-07-13T14:15:09;0.93;;;0.70;;
25639;SDS011;13497;48.322;16.204;2023-07-13T14:17:45;0.80;;;0.80;;
25639;SDS011;13497;48.322;16.204;2023-07-13T14:22:37;1.27;;;0.93;;
25639;SDS011;13497;48.322;16.204;2023-07-13T14:27:28;0.85;;;0.85;;
25639;SDS011;13497;48.322;16.204;2023-07-13T14:32:19;0.95;;;0.90;;
25639;SDS011;13497;48.322;16.204;2023-07-13T14:37:14;1.42;;;0.80;;
25639;SDS011;13497;48.322;16.204;2023-07-13T14:39:42;1.10;;;1.00;;
25639;SDS011;13497;48.322;16.204;2023-07-13T14:42:09;0.90;;;0.90;;
25639;SDS011;13497;48.322;16.204;2023-07-13T14:44:37;1.67;;;1.00;;
25639;SDS011;13497;48.322;16.204;2023-07-13T14:47:03;1.10;;;1.00;;
25639;SDS011;13497;48.322;16.204;2023-07-13T14:49:34;1.35;;;1.08;;
25639;SDS011;13497;48.322;16.204;2023-07-13T14:52:08;1.15;;;1.05;;
25639;SDS011;13497;48.322;16.204;2023-07-13T14:54:42;1.10;;;1.00;;
25639;SDS011;13497;48.322;16.204;2023-07-13T14:57:12;1.08;;;0.98;;
25639;SDS011;13497;48.322;16.204;2023-07-13T14:59:40;1.08;;;0.98;;
25639;SDS011;13497;48.322;16.204;2023-07-13T15:04:54;0.93;;;0.85;;
25639;SDS011;13497;48.322;16.204;2023-07-13T15:07:21;0.90;;;0.85;;
25639;SDS011;13497;48.322;16.204;2023-07-13T15:09:49;1.00;;;0.90;;
25639;SDS011;13497;48.322;16.204;2023-07-13T15:12:16;0.80;;;0.80;;
25639;SDS011;13497;48.322;16.204;2023-07-13T15:17:18;0.77;;;0.77;;
25639;SDS011;13497;48.322;16.204;2023-07-13T15:19:49;0.85;;;0.85;;
25639;SDS011;13497;48.322;16.204;2023-07-13T15:24:40;0.80;;;0.80;;
25639;SDS011;13497;48.322;16.204;2023-07-13T15:27:09;0.70;;;0.70;;
25639;SDS011;13497;48.322;16.204;2023-07-13T15:29:37;1.95;;;1.00;;
25639;SDS011;13497;48.322;16.204;2023-07-13T15:32:03;0.85;;;0.85;;
25639;SDS011;13497;48.322;16.204;2023-07-13T15:34:30;0.90;;;0.90;;
25639;SDS011;13497;48.322;16.204;2023-07-13T15:36:56;0.98;;;0.90;;
25639;SDS011;13497;48.322;16.204;2023-07-13T15:41:47;0.60;;;0.60;;
25639;SDS011;13497;48.322;16.204;2023-07-13T15:44:21;1.55;;;1.10;;
25639;SDS011;13497;48.322;16.204;2023-07-13T15:46:54;1.90;;;0.82;;
25639;SDS011;13497;48.322;16.204;2023-07-13T15:49:20;1.75;;;0.93;;
25639;SDS011;13497;48.322;16.204;2023-07-13T15:51:46;1.10;;;1.00;;
25639;SDS011;13497;48.322;16.204;2023-07-13T15:54:13;2.63;;;1.02;;
25639;SDS011;13497;48.322;16.204;2023-07-13T15:56:41;0.90;;;0.90;;